Accueil
METAR-TAF:

METAR-TAF

Aéroports :

Kunming, Chine

Aéroport international de Kunming Changshui

latitude: 25-01N, longitude: 102-41E, altitude: 1892 m

Observation

Le bulletin a été fait il y a 48 minutes, à 08:00 UTC
Vent 4 kt de nord-est, variant entre nord et est
Température 23°C
Humidité 61%
Pression 1017 hPa
Visibilité 10 km ou plus
Quelques nuages à une hauteur de 2000 ft, Cumulus congestus.
Nuages épars à une hauteur de 2000 ft
Nuages fragmentés à une hauteur de 4000 ft

METAR: ZPPP 240800Z 04002MPS 360V080 9999 FEW020TCU SCT020 BKN040 23/15 Q1017 NOSIG

Heure: 16:48 (08:48 UTC)

Prévision

Le bulletin a été fait il y a 7 heures et 33 minutes, à 01:15 UTC
Prévision valable du 24 à 06 UTC au 25 à 06 UTC
Vent 8 kt de sud/sud-est
Visibilité 10 km ou plus
Nuages épars à une hauteur de 2300 ft
Nuages fragmentés à une hauteur de 4000 ft

TAF: ZPPP 240115Z 2406/2506 16004MPS 9999 SCT023 BKN040 TX26/2408Z TN17/2423Z

Observations et prévisions météorologiques de plus de 4000 aéroports (messages METAR et TAF).

Les stations disponibles sont représentées par des disques jaunes et rouges sur la carte.

Passer la souris dessus pour voir le nom de la station.

Cliquer dessus pour voir les observations et prévisions météorologiques.

Pour changer de carte: cliquez sur les boutons verts avec une croix noire pour zoomer, sur le bouton vert avec un tiret pour effectuer un zoom arrière, ou sur les flèches vertes pour les cartes adjacentes.


METAR-TAF: